<?xml version="1.0" encoding="utf-8"?>
<gpx xmlns:xsi="http://www.w3.org/2001/XMLSchema-instance" xmlns:xsd="http://www.w3.org/2001/XMLSchema" version="1.1" creator="Shapelink.com" xmlns="http://www.topografix.com/GPX/1/1" xmlns:gpxtpx="http://www.garmin.com/xmlschemas/TrackPointExtension/v1">
  <metadata>
    <name>Esquí nórdico 9.74 km, 2019-12-31</name>
    <desc></desc>
    <author><name>Per Rooth</name></author> 
    <time>2019-12-31T15:23:41Z</time>
  </metadata>
  <trk>
    <name>Esquí nórdico 9.74 km, 2019-12-31</name>
    <trkseg>
      <trkpt lat="61.303379455158" lon="12.242475399844">
        <ele>443</ele>
        <time>2019-12-31T15:23:41Z</time>
      </trkpt>
      <trkpt lat="61.303350872879" lon="12.242590399512">
        <ele>442.8</ele>
        <time>2019-12-31T15:23:46Z</time>
      </trkpt>
      <trkpt lat="61.303361853168" lon="12.243012931091">
        <ele>442.6</ele>
        <time>2019-12-31T15:23:51Z</time>
      </trkpt>
      <trkpt lat="61.303339724952" lon="12.243268998136">
        <ele>441.4</ele>
        <time>2019-12-31T15:23:53Z</time>
      </trkpt>
      <trkpt lat="61.303304772429" lon="12.243376957008">
        <ele>440.4</ele>
        <time>2019-12-31T15:23:54Z</time>
      </trkpt>
      <trkpt lat="61.30325942635" lon="12.243459015809">
        <ele>439.4</ele>
        <time>2019-12-31T15:23:55Z</time>
      </trkpt>
      <trkpt lat="61.303211733339" lon="12.243514839263">
        <ele>438.6</ele>
        <time>2019-12-31T15:23:56Z</time>
      </trkpt>
      <trkpt lat="61.303166303441" lon="12.243542583352">
        <ele>438.2</ele>
        <time>2019-12-31T15:23:57Z</time>
      </trkpt>
      <trkpt lat="61.303009813368" lon="12.243376454094">
        <ele>438.2</ele>
        <time>2019-12-31T15:24:36Z</time>
      </trkpt>
      <trkpt lat="61.30292750311" lon="12.243399001405">
        <ele>439</ele>
        <time>2019-12-31T15:24:39Z</time>
      </trkpt>
      <trkpt lat="61.302863381575" lon="12.243423141277">
        <ele>439.6</ele>
        <time>2019-12-31T15:24:41Z</time>
      </trkpt>
      <trkpt lat="61.302737485437" lon="12.243472762125">
        <ele>440.8</ele>
        <time>2019-12-31T15:24:45Z</time>
      </trkpt>
      <trkpt lat="61.302270865064" lon="12.243729583541">
        <ele>440.4</ele>
        <time>2019-12-31T15:24:58Z</time>
      </trkpt>
      <trkpt lat="61.301897199962" lon="12.243739055088">
        <ele>442</ele>
        <time>2019-12-31T15:25:11Z</time>
      </trkpt>
      <trkpt lat="61.301436027824" lon="12.243868220167">
        <ele>441.8</ele>
        <time>2019-12-31T15:25:26Z</time>
      </trkpt>
      <trkpt lat="61.301238131165" lon="12.244088747956">
        <ele>441.4</ele>
        <time>2019-12-31T15:25:33Z</time>
      </trkpt>
      <trkpt lat="61.300778970683" lon="12.244114480389">
        <ele>442.6</ele>
        <time>2019-12-31T15:25:49Z</time>
      </trkpt>
      <trkpt lat="61.300674196933" lon="12.244130154542">
        <ele>443.2</ele>
        <time>2019-12-31T15:25:54Z</time>
      </trkpt>
      <trkpt lat="61.300306231523" lon="12.244529384439">
        <ele>442.8</ele>
        <time>2019-12-31T15:26:11Z</time>
      </trkpt>
      <trkpt lat="61.300319391106" lon="12.244549836275">
        <ele>443</ele>
        <time>2019-12-31T15:26:24Z</time>
      </trkpt>
      <trkpt lat="61.30025200063" lon="12.244616556199">
        <ele>443</ele>
        <time>2019-12-31T15:26:45Z</time>
      </trkpt>
      <trkpt lat="61.300152758934" lon="12.244702303036">
        <ele>442.8</ele>
        <time>2019-12-31T15:27:57Z</time>
      </trkpt>
      <trkpt lat="61.300122332637" lon="12.244718480103">
        <ele>443</ele>
        <time>2019-12-31T15:29:00Z</time>
      </trkpt>
      <trkpt lat="61.300082937707" lon="12.244779667973">
        <ele>442.4</ele>
        <time>2019-12-31T15:29:05Z</time>
      </trkpt>
      <trkpt lat="61.299758977272" lon="12.24535827053">
        <ele>443</ele>
        <time>2019-12-31T15:29:27Z</time>
      </trkpt>
      <trkpt lat="61.299511627403" lon="12.245417279106">
        <ele>444.2</ele>
        <time>2019-12-31T15:29:37Z</time>
      </trkpt>
      <trkpt lat="61.299055484405" lon="12.245568320944">
        <ele>444.6</ele>
        <time>2019-12-31T15:29:51Z</time>
      </trkpt>
      <trkpt lat="61.298678718" lon="12.245673765246">
        <ele>443.4</ele>
        <time>2019-12-31T15:30:00Z</time>
      </trkpt>
      <trkpt lat="61.298392811391" lon="12.245790692751">
        <ele>445.4</ele>
        <time>2019-12-31T15:30:09Z</time>
      </trkpt>
      <trkpt lat="61.29809449957" lon="12.245913319948">
        <ele>444.2</ele>
        <time>2019-12-31T15:30:17Z</time>
      </trkpt>
      <trkpt lat="61.297626957188" lon="12.246144744207">
        <ele>443.4</ele>
        <time>2019-12-31T15:30:28Z</time>
      </trkpt>
      <trkpt lat="61.297408692512" lon="12.246227808836">
        <ele>443.8</ele>
        <time>2019-12-31T15:30:35Z</time>
      </trkpt>
      <trkpt lat="61.296948107107" lon="12.246345239255">
        <ele>445.4</ele>
        <time>2019-12-31T15:30:53Z</time>
      </trkpt>
      <trkpt lat="61.296609645985" lon="12.246407600591">
        <ele>446.4</ele>
        <time>2019-12-31T15:31:05Z</time>
      </trkpt>
      <trkpt lat="61.296445528383" lon="12.246452779032">
        <ele>445.4</ele>
        <time>2019-12-31T15:31:11Z</time>
      </trkpt>
      <trkpt lat="61.296157107204" lon="12.246525953019">
        <ele>446.4</ele>
        <time>2019-12-31T15:31:22Z</time>
      </trkpt>
      <trkpt lat="61.295762487352" lon="12.246663164722">
        <ele>447.4</ele>
        <time>2019-12-31T15:31:37Z</time>
      </trkpt>
      <trkpt lat="61.295604991451" lon="12.24672535842">
        <ele>448.6</ele>
        <time>2019-12-31T15:31:43Z</time>
      </trkpt>
      <trkpt lat="61.295533242387" lon="12.246749330654">
        <ele>449.2</ele>
        <time>2019-12-31T15:31:46Z</time>
      </trkpt>
      <trkpt lat="61.295350014053" lon="12.24679325181">
        <ele>449.6</ele>
        <time>2019-12-31T15:31:52Z</time>
      </trkpt>
      <trkpt lat="61.294883058404" lon="12.246862151028">
        <ele>448.8</ele>
        <time>2019-12-31T15:32:04Z</time>
      </trkpt>
      <trkpt lat="61.294449881812" lon="12.246998440722">
        <ele>448.6</ele>
        <time>2019-12-31T15:32:18Z</time>
      </trkpt>
      <trkpt lat="61.294157856416" lon="12.247075135107">
        <ele>449.6</ele>
        <time>2019-12-31T15:32:28Z</time>
      </trkpt>
      <trkpt lat="61.293905058312" lon="12.247205222195">
        <ele>450.8</ele>
        <time>2019-12-31T15:32:38Z</time>
      </trkpt>
      <trkpt lat="61.293760889632" lon="12.247276552164">
        <ele>452</ele>
        <time>2019-12-31T15:32:44Z</time>
      </trkpt>
      <trkpt lat="61.293465595295" lon="12.247362466639">
        <ele>453.4</ele>
        <time>2019-12-31T15:32:55Z</time>
      </trkpt>
      <trkpt lat="61.293066449217" lon="12.247551478484">
        <ele>454.2</ele>
        <time>2019-12-31T15:33:09Z</time>
      </trkpt>
      <trkpt lat="61.293009871392" lon="12.247581066591">
        <ele>454.4</ele>
        <time>2019-12-31T15:33:11Z</time>
      </trkpt>
      <trkpt lat="61.292824212307" lon="12.247631357991">
        <ele>455.8</ele>
        <time>2019-12-31T15:33:17Z</time>
      </trkpt>
      <trkpt lat="61.292355580278" lon="12.247720373769">
        <ele>456</ele>
        <time>2019-12-31T15:33:30Z</time>
      </trkpt>
      <trkpt lat="61.292060285941" lon="12.24771861357">
        <ele>454.8</ele>
        <time>2019-12-31T15:33:43Z</time>
      </trkpt>
      <trkpt lat="61.291913854148" lon="12.247700676304">
        <ele>455.8</ele>
        <time>2019-12-31T15:33:51Z</time>
      </trkpt>
      <trkpt lat="61.291610345549" lon="12.247735712646">
        <ele>457</ele>
        <time>2019-12-31T15:34:05Z</time>
      </trkpt>
      <trkpt lat="61.291152777628" lon="12.248056152683">
        <ele>458</ele>
        <time>2019-12-31T15:34:20Z</time>
      </trkpt>
      <trkpt lat="61.291056888692" lon="12.24814106133">
        <ele>458.2</ele>
        <time>2019-12-31T15:34:23Z</time>
      </trkpt>
      <trkpt lat="61.290625723756" lon="12.248456472227">
        <ele>457.8</ele>
        <time>2019-12-31T15:34:36Z</time>
      </trkpt>
      <trkpt lat="61.290183578531" lon="12.248801974145">
        <ele>458.4</ele>
        <time>2019-12-31T15:34:50Z</time>
      </trkpt>
      <trkpt lat="61.290070339062" lon="12.24888453586">
        <ele>458</ele>
        <time>2019-12-31T15:34:54Z</time>
      </trkpt>
      <trkpt lat="61.289636072823" lon="12.249251327804">
        <ele>459.2</ele>
        <time>2019-12-31T15:35:10Z</time>
      </trkpt>
      <trkpt lat="61.289604053965" lon="12.249275467676">
        <ele>459.2</ele>
        <time>2019-12-31T15:35:11Z</time>
      </trkpt>
      <trkpt lat="61.289181941481" lon="12.249611749504">
        <ele>458.6</ele>
        <time>2019-12-31T15:35:25Z</time>
      </trkpt>
      <trkpt lat="61.288745747405" lon="12.249988348271">
        <ele>459.8</ele>
        <time>2019-12-31T15:35:37Z</time>
      </trkpt>
      <trkpt lat="61.288530416394" lon="12.250236955425">
        <ele>458.2</ele>
        <time>2019-12-31T15:35:43Z</time>
      </trkpt>
      <trkpt lat="61.28813261142" lon="12.250792340119">
        <ele>457</ele>
        <time>2019-12-31T15:35:55Z</time>
      </trkpt>
      <trkpt lat="61.28802616129" lon="12.250952853504">
        <ele>455.8</ele>
        <time>2019-12-31T15:35:58Z</time>
      </trkpt>
      <trkpt lat="61.287713264963" lon="12.25149130676">
        <ele>454.8</ele>
        <time>2019-12-31T15:36:07Z</time>
      </trkpt>
      <trkpt lat="61.287380000619" lon="12.251977708417">
        <ele>453.8</ele>
        <time>2019-12-31T15:36:16Z</time>
      </trkpt>
      <trkpt lat="61.287207668755" lon="12.25220963559">
        <ele>452.6</ele>
        <time>2019-12-31T15:36:21Z</time>
      </trkpt>
      <trkpt lat="61.286789998678" lon="12.252692265392">
        <ele>452</ele>
        <time>2019-12-31T15:36:33Z</time>
      </trkpt>
      <trkpt lat="61.286581037911" lon="12.252835512063">
        <ele>451.6</ele>
        <time>2019-12-31T15:36:39Z</time>
      </trkpt>
      <trkpt lat="61.286516329643" lon="12.252857724098">
        <ele>451.6</ele>
        <time>2019-12-31T15:36:41Z</time>
      </trkpt>
      <trkpt lat="61.286151800812" lon="12.252914888656">
        <ele>452.6</ele>
        <time>2019-12-31T15:36:59Z</time>
      </trkpt>
      <trkpt lat="61.285723820998" lon="12.253220660368">
        <ele>452.4</ele>
        <time>2019-12-31T15:37:14Z</time>
      </trkpt>
      <trkpt lat="61.285294919175" lon="12.253529198107">
        <ele>452.8</ele>
        <time>2019-12-31T15:37:28Z</time>
      </trkpt>
      <trkpt lat="61.284843805317" lon="12.253833461077">
        <ele>453</ele>
        <time>2019-12-31T15:37:43Z</time>
      </trkpt>
      <trkpt lat="61.284707096528" lon="12.253907557073">
        <ele>453.6</ele>
        <time>2019-12-31T15:37:47Z</time>
      </trkpt>
      <trkpt lat="61.28425514448" lon="12.254172592751">
        <ele>453</ele>
        <time>2019-12-31T15:38:00Z</time>
      </trkpt>
      <trkpt lat="61.284086500652" lon="12.254306032599">
        <ele>452.4</ele>
        <time>2019-12-31T15:38:05Z</time>
      </trkpt>
      <trkpt lat="61.283634548604" lon="12.254621443496">
        <ele>451.4</ele>
        <time>2019-12-31T15:38:17Z</time>
      </trkpt>
      <trkpt lat="61.283200533822" lon="12.254951103623">
        <ele>452.4</ele>
        <time>2019-12-31T15:38:31Z</time>
      </trkpt>
      <trkpt lat="61.283173711742" lon="12.254971806916">
        <ele>452.6</ele>
        <time>2019-12-31T15:38:32Z</time>
      </trkpt>
      <trkpt lat="61.282741708616" lon="12.255244553942">
        <ele>453.2</ele>
        <time>2019-12-31T15:38:47Z</time>
      </trkpt>
      <trkpt lat="61.282618578505" lon="12.255335581376">
        <ele>453.8</ele>
        <time>2019-12-31T15:38:52Z</time>
      </trkpt>
      <trkpt lat="61.282159837118" lon="12.255563820513">
        <ele>453.8</ele>
        <time>2019-12-31T15:39:08Z</time>
      </trkpt>
      <trkpt lat="61.281957833328" lon="12.255758783507">
        <ele>454.2</ele>
        <time>2019-12-31T15:39:15Z</time>
      </trkpt>
      <trkpt lat="61.281752057683" lon="12.255934719588">
        <ele>454.8</ele>
        <time>2019-12-31T15:39:21Z</time>
      </trkpt>
      <trkpt lat="61.281328520276" lon="12.256331351096">
        <ele>454.8</ele>
        <time>2019-12-31T15:39:33Z</time>
      </trkpt>
      <trkpt lat="61.281175047687" lon="12.256578700965">
        <ele>453.8</ele>
        <time>2019-12-31T15:39:38Z</time>
      </trkpt>
      <trkpt lat="61.280818314023" lon="12.257214132804">
        <ele>454.2</ele>
        <time>2019-12-31T15:39:55Z</time>
      </trkpt>
      <trkpt lat="61.280747654606" lon="12.257281858556">
        <ele>455</ele>
        <time>2019-12-31T15:39:58Z</time>
      </trkpt>
      <trkpt lat="61.280321351172" lon="12.257602717688">
        <ele>454.8</ele>
        <time>2019-12-31T15:40:13Z</time>
      </trkpt>
      <trkpt lat="61.279901250344" lon="12.257951656185">
        <ele>455.8</ele>
        <time>2019-12-31T15:40:31Z</time>
      </trkpt>
      <trkpt lat="61.279862358328" lon="12.257965234863">
        <ele>456.2</ele>
        <time>2019-12-31T15:40:33Z</time>
      </trkpt>
      <trkpt lat="61.279611488061" lon="12.258125748248">
        <ele>457.2</ele>
        <time>2019-12-31T15:40:44Z</time>
      </trkpt>
      <trkpt lat="61.27918409498" lon="12.258484074473">
        <ele>457.8</ele>
        <time>2019-12-31T15:40:59Z</time>
      </trkpt>
      <trkpt lat="61.278798695218" lon="12.258847429838">
        <ele>458.6</ele>
        <time>2019-12-31T15:41:09Z</time>
      </trkpt>
      <trkpt lat="61.2783693743" lon="12.259227716641">
        <ele>457.6</ele>
        <time>2019-12-31T15:41:20Z</time>
      </trkpt>
      <trkpt lat="61.27833500851" lon="12.259252359427">
        <ele>457.4</ele>
        <time>2019-12-31T15:41:21Z</time>
      </trkpt>
      <trkpt lat="61.277886912136" lon="12.259491578853">
        <ele>457.6</ele>
        <time>2019-12-31T15:41:40Z</time>
      </trkpt>
      <trkpt lat="61.277504529858" lon="12.259654020075">
        <ele>458.4</ele>
        <time>2019-12-31T15:41:56Z</time>
      </trkpt>
      <trkpt lat="61.277321552981" lon="12.25971730342">
        <ele>459.4</ele>
        <time>2019-12-31T15:42:02Z</time>
      </trkpt>
      <trkpt lat="61.277026342463" lon="12.260079988233">
        <ele>458.8</ele>
        <time>2019-12-31T15:42:08Z</time>
      </trkpt>
      <trkpt lat="61.276572043483" lon="12.260084598278">
        <ele>459.8</ele>
        <time>2019-12-31T15:42:28Z</time>
      </trkpt>
      <trkpt lat="61.276307845995" lon="12.26017579335">
        <ele>460.6</ele>
        <time>2019-12-31T15:42:37Z</time>
      </trkpt>
      <trkpt lat="61.276063094515" lon="12.260291798846">
        <ele>459.6</ele>
        <time>2019-12-31T15:42:44Z</time>
      </trkpt>
      <trkpt lat="61.275612148295" lon="12.260443595055">
        <ele>460</ele>
        <time>2019-12-31T15:43:00Z</time>
      </trkpt>
      <trkpt lat="61.275547859122" lon="12.260467651108">
        <ele>460.6</ele>
        <time>2019-12-31T15:43:03Z</time>
      </trkpt>
      <trkpt lat="61.275399918587" lon="12.260527246417">
        <ele>461.8</ele>
        <time>2019-12-31T15:43:10Z</time>
      </trkpt>
      <trkpt lat="61.275245356351" lon="12.260590362124">
        <ele>462.8</ele>
        <time>2019-12-31T15:43:16Z</time>
      </trkpt>
      <trkpt lat="61.2750920514" lon="12.260674264943">
        <ele>463.4</ele>
        <time>2019-12-31T15:43:22Z</time>
      </trkpt>
      <trkpt lat="61.274794158674" lon="12.260763448359">
        <ele>463.8</ele>
        <time>2019-12-31T15:43:32Z</time>
      </trkpt>
      <trkpt lat="61.27465786898" lon="12.260844166056">
        <ele>463.8</ele>
        <time>2019-12-31T15:43:37Z</time>
      </trkpt>
      <trkpt lat="61.27420524638" lon="12.261042733267">
        <ele>463.2</ele>
        <time>2019-12-31T15:43:51Z</time>
      </trkpt>
      <trkpt lat="61.273740302387" lon="12.261203665747">
        <ele>464.6</ele>
        <time>2019-12-31T15:44:09Z</time>
      </trkpt>
      <trkpt lat="61.273576184785" lon="12.261256387898">
        <ele>465</ele>
        <time>2019-12-31T15:44:17Z</time>
      </trkpt>
      <trkpt lat="61.27355061999" lon="12.261272062051">
        <ele>465</ele>
        <time>2019-12-31T15:44:18Z</time>
      </trkpt>
      <trkpt lat="61.273411228993" lon="12.261313049542">
        <ele>466</ele>
        <time>2019-12-31T15:44:24Z</time>
      </trkpt>
      <trkpt lat="61.273249793599" lon="12.261346325685">
        <ele>467.2</ele>
        <time>2019-12-31T15:44:32Z</time>
      </trkpt>
      <trkpt lat="61.273100092865" lon="12.261376584344">
        <ele>468.2</ele>
        <time>2019-12-31T15:44:39Z</time>
      </trkpt>
      <trkpt lat="61.272775126602" lon="12.261501642292">
        <ele>469.2</ele>
        <time>2019-12-31T15:44:53Z</time>
      </trkpt>
      <trkpt lat="61.272593155553" lon="12.261630053">
        <ele>470.4</ele>
        <time>2019-12-31T15:45:02Z</time>
      </trkpt>
      <trkpt lat="61.272368604452" lon="12.261725019927">
        <ele>471.6</ele>
        <time>2019-12-31T15:45:13Z</time>
      </trkpt>
      <trkpt lat="61.272020504145" lon="12.261807833099">
        <ele>472.6</ele>
        <time>2019-12-31T15:45:28Z</time>
      </trkpt>
      <trkpt lat="61.271741386875" lon="12.261910343736">
        <ele>473.8</ele>
        <time>2019-12-31T15:45:38Z</time>
      </trkpt>
      <trkpt lat="61.271283483678" lon="12.262052584579">
        <ele>473.8</ele>
        <time>2019-12-31T15:45:53Z</time>
      </trkpt>
      <trkpt lat="61.270820383703" lon="12.262145204574">
        <ele>474.8</ele>
        <time>2019-12-31T15:46:12Z</time>
      </trkpt>
      <trkpt lat="61.270802362618" lon="12.262147383868">
        <ele>475</ele>
        <time>2019-12-31T15:46:13Z</time>
      </trkpt>
      <trkpt lat="61.270622989958" lon="12.262200357476">
        <ele>476.2</ele>
        <time>2019-12-31T15:46:21Z</time>
      </trkpt>
      <trkpt lat="61.27015008316" lon="12.262259868966">
        <ele>476</ele>
        <time>2019-12-31T15:46:35Z</time>
      </trkpt>
      <trkpt lat="61.269697041465" lon="12.262408899148">
        <ele>477</ele>
        <time>2019-12-31T15:46:51Z</time>
      </trkpt>
      <trkpt lat="61.269660161105" lon="12.262421555817">
        <ele>477.2</ele>
        <time>2019-12-31T15:46:53Z</time>
      </trkpt>
      <trkpt lat="61.269474753477" lon="12.262522306255">
        <ele>478.4</ele>
        <time>2019-12-31T15:47:01Z</time>
      </trkpt>
      <trkpt lat="61.269281383044" lon="12.262627582919">
        <ele>479.6</ele>
        <time>2019-12-31T15:47:09Z</time>
      </trkpt>
      <trkpt lat="61.268830939738" lon="12.262632612059">
        <ele>480</ele>
        <time>2019-12-31T15:47:29Z</time>
      </trkpt>
      <trkpt lat="61.268754245353" lon="12.262623811064">
        <ele>480.6</ele>
        <time>2019-12-31T15:47:33Z</time>
      </trkpt>
      <trkpt lat="61.268556935427" lon="12.262586595428">
        <ele>481.6</ele>
        <time>2019-12-31T15:47:42Z</time>
      </trkpt>
      <trkpt lat="61.268382088993" lon="12.26252440173">
        <ele>482.8</ele>
        <time>2019-12-31T15:47:50Z</time>
      </trkpt>
      <trkpt lat="61.268078161299" lon="12.262425411491">
        <ele>483.8</ele>
        <time>2019-12-31T15:48:02Z</time>
      </trkpt>
      <trkpt lat="61.267621850663" lon="12.262322230302">
        <ele>483.4</ele>
        <time>2019-12-31T15:48:17Z</time>
      </trkpt>
      <trkpt lat="61.267427977316" lon="12.262273112368">
        <ele>485</ele>
        <time>2019-12-31T15:48:24Z</time>
      </trkpt>
      <trkpt lat="61.267045511219" lon="12.262299431534">
        <ele>484</ele>
        <time>2019-12-31T15:48:39Z</time>
      </trkpt>
      <trkpt lat="61.267018940596" lon="12.262313848402">
        <ele>483.8</ele>
        <time>2019-12-31T15:48:42Z</time>
      </trkpt>
      <trkpt lat="61.266885836024" lon="12.262372354064">
        <ele>484.2</ele>
        <time>2019-12-31T15:49:32Z</time>
      </trkpt>
      <trkpt lat="61.266814506055" lon="12.262395991022">
        <ele>485.2</ele>
        <time>2019-12-31T15:49:35Z</time>
      </trkpt>
      <trkpt lat="61.266714007074" lon="12.262411413718">
        <ele>486.2</ele>
        <time>2019-12-31T15:49:40Z</time>
      </trkpt>
      <trkpt lat="61.26660286308" lon="12.262461286023">
        <ele>487.4</ele>
        <time>2019-12-31T15:49:45Z</time>
      </trkpt>
      <trkpt lat="61.266487109041" lon="12.262512583251">
        <ele>488.8</ele>
        <time>2019-12-31T15:49:50Z</time>
      </trkpt>
      <trkpt lat="61.266422568411" lon="12.262565808316">
        <ele>489.8</ele>
        <time>2019-12-31T15:49:53Z</time>
      </trkpt>
      <trkpt lat="61.266273119134" lon="12.262688938427">
        <ele>491</ele>
        <time>2019-12-31T15:50:00Z</time>
      </trkpt>
      <trkpt lat="61.266138086725" lon="12.26284626669">
        <ele>492</ele>
        <time>2019-12-31T15:50:06Z</time>
      </trkpt>
      <trkpt lat="61.26600942456" lon="12.263112308196">
        <ele>491.8</ele>
        <time>2019-12-31T15:50:27Z</time>
      </trkpt>
      <trkpt lat="61.266081927995" lon="12.262991860293">
        <ele>492</ele>
        <time>2019-12-31T15:50:57Z</time>
      </trkpt>
      <trkpt lat="61.266532874215" lon="12.262589445274">
        <ele>490.2</ele>
        <time>2019-12-31T15:51:08Z</time>
      </trkpt>
      <trkpt lat="61.266597163388" lon="12.262560611538">
        <ele>488.8</ele>
        <time>2019-12-31T15:51:09Z</time>
      </trkpt>
      <trkpt lat="61.266661368742" lon="12.262535465838">
        <ele>487.2</ele>
        <time>2019-12-31T15:51:10Z</time>
      </trkpt>
      <trkpt lat="61.266726747562" lon="12.262511996518">
        <ele>485.8</ele>
        <time>2019-12-31T15:51:11Z</time>
      </trkpt>
      <trkpt lat="61.266803525766" lon="12.262486515542">
        <ele>484.6</ele>
        <time>2019-12-31T15:51:12Z</time>
      </trkpt>
      <trkpt lat="61.266888350594" lon="12.262463884412">
        <ele>483.4</ele>
        <time>2019-12-31T15:51:13Z</time>
      </trkpt>
      <trkpt lat="61.266959596744" lon="12.262435888866">
        <ele>482.4</ele>
        <time>2019-12-31T15:51:14Z</time>
      </trkpt>
      <trkpt lat="61.267109213659" lon="12.262384340181">
        <ele>480.6</ele>
        <time>2019-12-31T15:51:16Z</time>
      </trkpt>
      <trkpt lat="61.26718205237" lon="12.262393308814">
        <ele>480.2</ele>
        <time>2019-12-31T15:51:17Z</time>
      </trkpt>
      <trkpt lat="61.26752403389" lon="12.262463297679">
        <ele>482</ele>
        <time>2019-12-31T15:51:21Z</time>
      </trkpt>
      <trkpt lat="61.267585389398" lon="12.262464806421">
        <ele>483</ele>
        <time>2019-12-31T15:51:22Z</time>
      </trkpt>
      <trkpt lat="61.267966933486" lon="12.26254703286">
        <ele>484</ele>
        <time>2019-12-31T15:51:29Z</time>
      </trkpt>
      <trkpt lat="61.268458867197" lon="12.262653063895">
        <ele>483</ele>
        <time>2019-12-31T15:51:40Z</time>
      </trkpt>
      <trkpt lat="61.268571519933" lon="12.262665552926">
        <ele>482.8</ele>
        <time>2019-12-31T15:51:42Z</time>
      </trkpt>
      <trkpt lat="61.268891037961" lon="12.2627616095">
        <ele>481.8</ele>
        <time>2019-12-31T15:51:47Z</time>
      </trkpt>
      <trkpt lat="61.269090694819" lon="12.262778792395">
        <ele>480.4</ele>
        <time>2019-12-31T15:51:50Z</time>
      </trkpt>
      <trkpt lat="61.269469808156" lon="12.262695643947">
        <ele>479.2</ele>
        <time>2019-12-31T15:51:57Z</time>
      </trkpt>
      <trkpt lat="61.269805754708" lon="12.262565892135">
        <ele>478.2</ele>
        <time>2019-12-31T15:52:03Z</time>
      </trkpt>
      <trkpt lat="61.269922179299" lon="12.262528341223">
        <ele>476</ele>
        <time>2019-12-31T15:52:05Z</time>
      </trkpt>
      <trkpt lat="61.269978338029" lon="12.262516774201">
        <ele>475.4</ele>
        <time>2019-12-31T15:52:06Z</time>
      </trkpt>
      <trkpt lat="61.270097193371" lon="12.262508979034">
        <ele>474.4</ele>
        <time>2019-12-31T15:52:08Z</time>
      </trkpt>
      <trkpt lat="61.270308417251" lon="12.2624850068">
        <ele>476</ele>
        <time>2019-12-31T15:52:12Z</time>
      </trkpt>
      <trkpt lat="61.270779060936" lon="12.262389788416">
        <ele>475.8</ele>
        <time>2019-12-31T15:52:22Z</time>
      </trkpt>
      <trkpt lat="61.271224391283" lon="12.262259617509">
        <ele>475.2</ele>
        <time>2019-12-31T15:52:30Z</time>
      </trkpt>
      <trkpt lat="61.271277364891" lon="12.262230951411">
        <ele>474.8</ele>
        <time>2019-12-31T15:52:31Z</time>
      </trkpt>
      <trkpt lat="61.271527145511" lon="12.262140845986">
        <ele>473.6</ele>
        <time>2019-12-31T15:52:36Z</time>
      </trkpt>
      <trkpt lat="61.271654382753" lon="12.262080412487">
        <ele>472.8</ele>
        <time>2019-12-31T15:52:39Z</time>
      </trkpt>
      <trkpt lat="61.271813135939" lon="12.262026433051">
        <ele>472.6</ele>
        <time>2019-12-31T15:52:43Z</time>
      </trkpt>
      <trkpt lat="61.272272966973" lon="12.26185384973">
        <ele>472</ele>
        <time>2019-12-31T15:52:54Z</time>
      </trkpt>
      <trkpt lat="61.272327197866" lon="12.261829877496">
        <ele>472</ele>
        <time>2019-12-31T15:52:55Z</time>
      </trkpt>
      <trkpt lat="61.27242828358" lon="12.26177086892">
        <ele>471.8</ele>
        <time>2019-12-31T15:52:57Z</time>
      </trkpt>
      <trkpt lat="61.27247354584" lon="12.261737006044">
        <ele>471.6</ele>
        <time>2019-12-31T15:52:58Z</time>
      </trkpt>
      <trkpt lat="61.272583600187" lon="12.261680679676">
        <ele>469.6</ele>
        <time>2019-12-31T15:53:00Z</time>
      </trkpt>
      <trkpt lat="61.272639004546" lon="12.261660060202">
        <ele>468.4</ele>
        <time>2019-12-31T15:53:01Z</time>
      </trkpt>
      <trkpt lat="61.272740341717" lon="12.261599207608">
        <ele>467.2</ele>
        <time>2019-12-31T15:53:03Z</time>
      </trkpt>
      <trkpt lat="61.272880235628" lon="12.261545814905">
        <ele>466</ele>
        <time>2019-12-31T15:53:06Z</time>
      </trkpt>
      <trkpt lat="61.27303094219" lon="12.261532487684">
        <ele>464.6</ele>
        <time>2019-12-31T15:53:09Z</time>
      </trkpt>
      <trkpt lat="61.273299917361" lon="12.261483621207">
        <ele>463.4</ele>
        <time>2019-12-31T15:53:15Z</time>
      </trkpt>
      <trkpt lat="61.273400081066" lon="12.261458559326">
        <ele>462</ele>
        <time>2019-12-31T15:53:17Z</time>
      </trkpt>
      <trkpt lat="61.273494293622" lon="12.261438861861">
        <ele>460.8</ele>
        <time>2019-12-31T15:53:19Z</time>
      </trkpt>
      <trkpt lat="61.273620860312" lon="12.261394353972">
        <ele>459.6</ele>
        <time>2019-12-31T15:53:22Z</time>
      </trkpt>
      <trkpt lat="61.274150512573" lon="12.261221435375">
        <ele>459.8</ele>
        <time>2019-12-31T15:53:28Z</time>
      </trkpt>
      <trkpt lat="61.274290825579" lon="12.261171479251">
        <ele>461.6</ele>
        <time>2019-12-31T15:53:30Z</time>
      </trkpt>
      <trkpt lat="61.274428540196" lon="12.2610852295">
        <ele>462.6</ele>
        <time>2019-12-31T15:53:33Z</time>
      </trkpt>
      <trkpt lat="61.274875295466" lon="12.260881968425">
        <ele>462.2</ele>
        <time>2019-12-31T15:53:44Z</time>
      </trkpt>
      <trkpt lat="61.27527393863" lon="12.260720784488">
        <ele>461.4</ele>
        <time>2019-12-31T15:53:54Z</time>
      </trkpt>
      <trkpt lat="61.27535691944" lon="12.260672337106">
        <ele>461.4</ele>
        <time>2019-12-31T15:53:56Z</time>
      </trkpt>
      <trkpt lat="61.275657997288" lon="12.260507548952">
        <ele>460.4</ele>
        <time>2019-12-31T15:54:02Z</time>
      </trkpt>
      <trkpt lat="61.27578523453" lon="12.260460610312">
        <ele>459</ele>
        <time>2019-12-31T15:54:04Z</time>
      </trkpt>
      <trkpt lat="61.276239030596" lon="12.26030068366">
        <ele>458.2</ele>
        <time>2019-12-31T15:54:13Z</time>
      </trkpt>
      <trkpt lat="61.276367189847" lon="12.260257181599">
        <ele>457.8</ele>
        <time>2019-12-31T15:54:17Z</time>
      </trkpt>
      <trkpt lat="61.276842778853" lon="12.260043191692">
        <ele>457.8</ele>
        <time>2019-12-31T15:54:31Z</time>
      </trkpt>
      <trkpt lat="61.277131870584" lon="12.259887120714">
        <ele>457.4</ele>
        <time>2019-12-31T15:54:38Z</time>
      </trkpt>
      <trkpt lat="61.27730403481" lon="12.25979022595">
        <ele>456.8</ele>
        <time>2019-12-31T15:54:42Z</time>
      </trkpt>
      <trkpt lat="61.277624055752" lon="12.259605069779">
        <ele>456.6</ele>
        <time>2019-12-31T15:54:50Z</time>
      </trkpt>
      <trkpt lat="61.278098471292" lon="12.259397869211">
        <ele>456.4</ele>
        <time>2019-12-31T15:55:01Z</time>
      </trkpt>
      <trkpt lat="61.278278682142" lon="12.259284545923">
        <ele>455.4</ele>
        <time>2019-12-31T15:55:05Z</time>
      </trkpt>
      <trkpt lat="61.278405248832" lon="12.25919511105">
        <ele>455.4</ele>
        <time>2019-12-31T15:55:08Z</time>
      </trkpt>
      <trkpt lat="61.27880690948" lon="12.258772076557">
        <ele>454.8</ele>
        <time>2019-12-31T15:55:22Z</time>
      </trkpt>
      <trkpt lat="61.279217371123" lon="12.258388688451">
        <ele>455.6</ele>
        <time>2019-12-31T15:55:37Z</time>
      </trkpt>
      <trkpt lat="61.279655493036" lon="12.258054753555">
        <ele>455.2</ele>
        <time>2019-12-31T15:55:50Z</time>
      </trkpt>
      <trkpt lat="61.279862609785" lon="12.257915865472">
        <ele>454.6</ele>
        <time>2019-12-31T15:55:55Z</time>
      </trkpt>
      <trkpt lat="61.279895215376" lon="12.257870603212">
        <ele>454.2</ele>
        <time>2019-12-31T15:55:56Z</time>
      </trkpt>
      <trkpt lat="61.279975681616" lon="12.257822323468">
        <ele>452.6</ele>
        <time>2019-12-31T15:55:58Z</time>
      </trkpt>
      <trkpt lat="61.280068804525" lon="12.257793070637">
        <ele>451.4</ele>
        <time>2019-12-31T15:56:00Z</time>
      </trkpt>
      <trkpt lat="61.280517571451" lon="12.257467098546">
        <ele>452</ele>
        <time>2019-12-31T15:56:09Z</time>
      </trkpt>
      <trkpt lat="61.280594936388" lon="12.257406329771">
        <ele>452.4</ele>
        <time>2019-12-31T15:56:11Z</time>
      </trkpt>
      <trkpt lat="61.280923842144" lon="12.257049009374">
        <ele>452</ele>
        <time>2019-12-31T15:56:20Z</time>
      </trkpt>
      <trkpt lat="61.28098704167" lon="12.25693032167">
        <ele>451.4</ele>
        <time>2019-12-31T15:56:22Z</time>
      </trkpt>
      <trkpt lat="61.281020401632" lon="12.256871061637">
        <ele>451.2</ele>
        <time>2019-12-31T15:56:23Z</time>
      </trkpt>
      <trkpt lat="61.281244701276" lon="12.256453475379">
        <ele>450.4</ele>
        <time>2019-12-31T15:56:30Z</time>
      </trkpt>
      <trkpt lat="61.281670753253" lon="12.256016526932">
        <ele>451</ele>
        <time>2019-12-31T15:56:44Z</time>
      </trkpt>
      <trkpt lat="61.282095547945" lon="12.255679490733">
        <ele>451.2</ele>
        <time>2019-12-31T15:56:58Z</time>
      </trkpt>
      <trkpt lat="61.282530736193" lon="12.25534530438">
        <ele>451.2</ele>
        <time>2019-12-31T15:57:12Z</time>
      </trkpt>
      <trkpt lat="61.282994255263" lon="12.255059900685">
        <ele>450.4</ele>
        <time>2019-12-31T15:57:23Z</time>
      </trkpt>
      <trkpt lat="61.283034488383" lon="12.255036179908">
        <ele>450.4</ele>
        <time>2019-12-31T15:57:24Z</time>
      </trkpt>
      <trkpt lat="61.283422235077" lon="12.254788327125">
        <ele>450</ele>
        <time>2019-12-31T15:57:33Z</time>
      </trkpt>
      <trkpt lat="61.283673943534" lon="12.254631585595">
        <ele>448.8</ele>
        <time>2019-12-31T15:57:39Z</time>
      </trkpt>
      <trkpt lat="61.284100666063" lon="12.254295471405">
        <ele>449.2</ele>
        <time>2019-12-31T15:57:54Z</time>
      </trkpt>
      <trkpt lat="61.284213654075" lon="12.254243587444">
        <ele>450</ele>
        <time>2019-12-31T15:57:58Z</time>
      </trkpt>
      <trkpt lat="61.284660996078" lon="12.253906048331">
        <ele>450.6</ele>
        <time>2019-12-31T15:58:13Z</time>
      </trkpt>
      <trkpt lat="61.285108589538" lon="12.253608993795">
        <ele>449.6</ele>
        <time>2019-12-31T15:58:26Z</time>
      </trkpt>
      <trkpt lat="61.285402542771" lon="12.253394752431">
        <ele>449</ele>
        <time>2019-12-31T15:58:34Z</time>
      </trkpt>
      <trkpt lat="61.285830690223" lon="12.253038018767">
        <ele>449.4</ele>
        <time>2019-12-31T15:58:47Z</time>
      </trkpt>
      <trkpt lat="61.286253305621" lon="12.252657731964">
        <ele>449.4</ele>
        <time>2019-12-31T15:59:02Z</time>
      </trkpt>
      <trkpt lat="61.286606686525" lon="12.252637615404">
        <ele>449.8</ele>
        <time>2019-12-31T15:59:09Z</time>
      </trkpt>
      <trkpt lat="61.287045311352" lon="12.252351792614">
        <ele>449</ele>
        <time>2019-12-31T15:59:22Z</time>
      </trkpt>
      <trkpt lat="61.287429621467" lon="12.251898834738">
        <ele>450</ele>
        <time>2019-12-31T15:59:39Z</time>
      </trkpt>
      <trkpt lat="61.287645874487" lon="12.251600355279">
        <ele>451</ele>
        <time>2019-12-31T15:59:48Z</time>
      </trkpt>
      <trkpt lat="61.287919878798" lon="12.251199532821">
        <ele>452.2</ele>
        <time>2019-12-31T16:00:00Z</time>
      </trkpt>
      <trkpt lat="61.288297064298" lon="12.2506665278">
        <ele>453</ele>
        <time>2019-12-31T16:00:15Z</time>
      </trkpt>
      <trkpt lat="61.288344338214" lon="12.250594527279">
        <ele>453.2</ele>
        <time>2019-12-31T16:00:17Z</time>
      </trkpt>
      <trkpt lat="61.288728983605" lon="12.250081387361">
        <ele>453.8</ele>
        <time>2019-12-31T16:00:34Z</time>
      </trkpt>
      <trkpt lat="61.288963760624" lon="12.249872845689">
        <ele>454.2</ele>
        <time>2019-12-31T16:00:43Z</time>
      </trkpt>
      <trkpt lat="61.289387884764" lon="12.249489625221">
        <ele>455.2</ele>
        <time>2019-12-31T16:00:58Z</time>
      </trkpt>
      <trkpt lat="61.289452090118" lon="12.249443273314">
        <ele>455.4</ele>
        <time>2019-12-31T16:01:00Z</time>
      </trkpt>
      <trkpt lat="61.289887529823" lon="12.249076900465">
        <ele>454.6</ele>
        <time>2019-12-31T16:01:14Z</time>
      </trkpt>
      <trkpt lat="61.290341661165" lon="12.248732320556">
        <ele>454.6</ele>
        <time>2019-12-31T16:01:28Z</time>
      </trkpt>
      <trkpt lat="61.290644750669" lon="12.248520258486">
        <ele>454.4</ele>
        <time>2019-12-31T16:01:37Z</time>
      </trkpt>
      <trkpt lat="61.291091505939" lon="12.248183892839">
        <ele>454.4</ele>
        <time>2019-12-31T16:01:51Z</time>
      </trkpt>
      <trkpt lat="61.291524179617" lon="12.247793296299">
        <ele>453.6</ele>
        <time>2019-12-31T16:02:06Z</time>
      </trkpt>
      <trkpt lat="61.291947884662" lon="12.247794469765">
        <ele>454</ele>
        <time>2019-12-31T16:02:16Z</time>
      </trkpt>
      <trkpt lat="61.292190540667" lon="12.24783260741">
        <ele>453.2</ele>
        <time>2019-12-31T16:02:21Z</time>
      </trkpt>
      <trkpt lat="61.292389862249" lon="12.247844174432">
        <ele>452.2</ele>
        <time>2019-12-31T16:02:26Z</time>
      </trkpt>
      <trkpt lat="61.29285748845" lon="12.24771861357">
        <ele>452.6</ele>
        <time>2019-12-31T16:02:41Z</time>
      </trkpt>
      <trkpt lat="61.29331262562" lon="12.247548628638">
        <ele>451.2</ele>
        <time>2019-12-31T16:02:51Z</time>
      </trkpt>
      <trkpt lat="61.29336207883" lon="12.247529014992">
        <ele>451</ele>
        <time>2019-12-31T16:02:52Z</time>
      </trkpt>
      <trkpt lat="61.293607584681" lon="12.247483165999">
        <ele>450.4</ele>
        <time>2019-12-31T16:02:57Z</time>
      </trkpt>
      <trkpt lat="61.293814785249" lon="12.247409153822">
        <ele>449.8</ele>
        <time>2019-12-31T16:03:01Z</time>
      </trkpt>
      <trkpt lat="61.294112426518" lon="12.247298596561">
        <ele>448.4</ele>
        <time>2019-12-31T16:03:06Z</time>
      </trkpt>
      <trkpt lat="61.294561696358" lon="12.247179238305">
        <ele>447.4</ele>
        <time>2019-12-31T16:03:14Z</time>
      </trkpt>
      <trkpt lat="61.294727238883" lon="12.247139759556">
        <ele>447</ele>
        <time>2019-12-31T16:03:17Z</time>
      </trkpt>
      <trkpt lat="61.294825474751" lon="12.247122995756">
        <ele>446.6</ele>
        <time>2019-12-31T16:03:19Z</time>
      </trkpt>
      <trkpt lat="61.294922369515" lon="12.247087121224">
        <ele>446.6</ele>
        <time>2019-12-31T16:03:21Z</time>
      </trkpt>
      <trkpt lat="61.294965955395" lon="12.24706482537">
        <ele>446.2</ele>
        <time>2019-12-31T16:03:22Z</time>
      </trkpt>
      <trkpt lat="61.29540642424" lon="12.246836418595">
        <ele>446.6</ele>
        <time>2019-12-31T16:03:35Z</time>
      </trkpt>
      <trkpt lat="61.295882348522" lon="12.246706247688">
        <ele>445.8</ele>
        <time>2019-12-31T16:03:46Z</time>
      </trkpt>
      <trkpt lat="61.295923336013" lon="12.246693088105">
        <ele>445.2</ele>
        <time>2019-12-31T16:03:47Z</time>
      </trkpt>
      <trkpt lat="61.29600656828" lon="12.246674480287">
        <ele>443.2</ele>
        <time>2019-12-31T16:03:49Z</time>
      </trkpt>
      <trkpt lat="61.296165489104" lon="12.246650424234">
        <ele>442.2</ele>
        <time>2019-12-31T16:03:52Z</time>
      </trkpt>
      <trkpt lat="61.296329103792" lon="12.246600132834">
        <ele>443.2</ele>
        <time>2019-12-31T16:03:55Z</time>
      </trkpt>
      <trkpt lat="61.296807626463" lon="12.246454036317">
        <ele>443.2</ele>
        <time>2019-12-31T16:04:05Z</time>
      </trkpt>
      <trkpt lat="61.297279275976" lon="12.246323446315">
        <ele>442.6</ele>
        <time>2019-12-31T16:04:14Z</time>
      </trkpt>
      <trkpt lat="61.297390587608" lon="12.246295115493">
        <ele>442.2</ele>
        <time>2019-12-31T16:04:16Z</time>
      </trkpt>
      <trkpt lat="61.297678170597" lon="12.246187491897">
        <ele>441.2</ele>
        <time>2019-12-31T16:04:21Z</time>
      </trkpt>
      <trkpt lat="61.297951923451" lon="12.246094788083">
        <ele>440</ele>
        <time>2019-12-31T16:04:26Z</time>
      </trkpt>
      <trkpt lat="61.298401360929" lon="12.24588968299">
        <ele>441</ele>
        <time>2019-12-31T16:04:40Z</time>
      </trkpt>
      <trkpt lat="61.298493729467" lon="12.245833859536">
        <ele>441.2</ele>
        <time>2019-12-31T16:04:43Z</time>
      </trkpt>
      <trkpt lat="61.298947609352" lon="12.245662868776">
        <ele>440.4</ele>
        <time>2019-12-31T16:04:54Z</time>
      </trkpt>
      <trkpt lat="61.299420013236" lon="12.245518029544">
        <ele>441.2</ele>
        <time>2019-12-31T16:05:08Z</time>
      </trkpt>
      <trkpt lat="61.299595278765" lon="12.245462541366">
        <ele>440</ele>
        <time>2019-12-31T16:05:13Z</time>
      </trkpt>
      <trkpt lat="61.299866600868" lon="12.245099940372">
        <ele>439</ele>
        <time>2019-12-31T16:05:23Z</time>
      </trkpt>
      <trkpt lat="61.299931644412" lon="12.244985527437">
        <ele>438.6</ele>
        <time>2019-12-31T16:05:25Z</time>
      </trkpt>
      <trkpt lat="61.300033652135" lon="12.244869354303">
        <ele>438</ele>
        <time>2019-12-31T16:05:28Z</time>
      </trkpt>
      <trkpt lat="61.300180419204" lon="12.24470029138">
        <ele>437.6</ele>
        <time>2019-12-31T16:05:36Z</time>
      </trkpt>
      <trkpt lat="61.300317798545" lon="12.244543885126">
        <ele>437.6</ele>
        <time>2019-12-31T16:06:55Z</time>
      </trkpt>
      <trkpt lat="61.300361719701" lon="12.244535587045">
        <ele>437.6</ele>
        <time>2019-12-31T16:07:01Z</time>
      </trkpt>
      <trkpt lat="61.300765978738" lon="12.244153120948">
        <ele>438.6</ele>
        <time>2019-12-31T16:07:16Z</time>
      </trkpt>
      <trkpt lat="61.301055741021" lon="12.244149349093">
        <ele>437.6</ele>
        <time>2019-12-31T16:07:22Z</time>
      </trkpt>
      <trkpt lat="61.301152803423" lon="12.244110876172">
        <ele>437</ele>
        <time>2019-12-31T16:07:24Z</time>
      </trkpt>
      <trkpt lat="61.301233604939" lon="12.244057734926">
        <ele>436.6</ele>
        <time>2019-12-31T16:07:26Z</time>
      </trkpt>
      <trkpt lat="61.301304934908" lon="12.243968383872">
        <ele>436.2</ele>
        <time>2019-12-31T16:07:28Z</time>
      </trkpt>
      <trkpt lat="61.301420102214" lon="12.24362908456">
        <ele>436.4</ele>
        <time>2019-12-31T16:07:40Z</time>
      </trkpt>
      <trkpt lat="61.301427729743" lon="12.243591449829">
        <ele>436.6</ele>
        <time>2019-12-31T16:07:42Z</time>
      </trkpt>
      <trkpt lat="61.301391184659" lon="12.243484580604">
        <ele>436.8</ele>
        <time>2019-12-31T16:07:53Z</time>
      </trkpt>
      <trkpt lat="61.301266964901" lon="12.243446107683">
        <ele>437.4</ele>
        <time>2019-12-31T16:07:58Z</time>
      </trkpt>
      <trkpt lat="61.301138302736" lon="12.243417273947">
        <ele>437.6</ele>
        <time>2019-12-31T16:08:05Z</time>
      </trkpt>
      <trkpt lat="61.301073929744" lon="12.243413837368">
        <ele>438</ele>
        <time>2019-12-31T16:08:10Z</time>
      </trkpt>
      <trkpt lat="61.301025063267" lon="12.243400593966">
        <ele>439.2</ele>
        <time>2019-12-31T16:08:14Z</time>
      </trkpt>
      <trkpt lat="61.300982818491" lon="12.243388021116">
        <ele>440.2</ele>
        <time>2019-12-31T16:08:18Z</time>
      </trkpt>
      <trkpt lat="61.300914673644" lon="12.243369664755">
        <ele>440.8</ele>
        <time>2019-12-31T16:08:25Z</time>
      </trkpt>
      <trkpt lat="61.300873769972" lon="12.243351308394">
        <ele>441.2</ele>
        <time>2019-12-31T16:08:28Z</time>
      </trkpt>
      <trkpt lat="61.300860107475" lon="12.243344267598">
        <ele>441.2</ele>
        <time>2019-12-31T16:08:29Z</time>
      </trkpt>
      <trkpt lat="61.300746448911" lon="12.243308560704">
        <ele>442.2</ele>
        <time>2019-12-31T16:08:35Z</time>
      </trkpt>
      <trkpt lat="61.30047915012" lon="12.243166906594">
        <ele>443.2</ele>
        <time>2019-12-31T16:08:48Z</time>
      </trkpt>
      <trkpt lat="61.300350823231" lon="12.24293925419">
        <ele>444.4</ele>
        <time>2019-12-31T16:08:56Z</time>
      </trkpt>
      <trkpt lat="61.300320648391" lon="12.242884101288">
        <ele>445</ele>
        <time>2019-12-31T16:08:58Z</time>
      </trkpt>
      <trkpt lat="61.300292820483" lon="12.242844622539">
        <ele>445.6</ele>
        <time>2019-12-31T16:09:00Z</time>
      </trkpt>
      <trkpt lat="61.300283348936" lon="12.242793576768">
        <ele>447</ele>
        <time>2019-12-31T16:09:03Z</time>
      </trkpt>
      <trkpt lat="61.300267339507" lon="12.242731299251">
        <ele>448.2</ele>
        <time>2019-12-31T16:09:06Z</time>
      </trkpt>
      <trkpt lat="61.300243199635" lon="12.242578581033">
        <ele>449.2</ele>
        <time>2019-12-31T16:09:13Z</time>
      </trkpt>
      <trkpt lat="61.30024110416" lon="12.242555782265">
        <ele>449.6</ele>
        <time>2019-12-31T16:09:14Z</time>
      </trkpt>
      <trkpt lat="61.300227609301" lon="12.242438603303">
        <ele>450.2</ele>
        <time>2019-12-31T16:09:20Z</time>
      </trkpt>
      <trkpt lat="61.300228028396" lon="12.242341876177">
        <ele>450.8</ele>
        <time>2019-12-31T16:09:48Z</time>
      </trkpt>
      <trkpt lat="61.30027211719" lon="12.242253279494">
        <ele>450.8</ele>
        <time>2019-12-31T16:09:51Z</time>
      </trkpt>
      <trkpt lat="61.300317798545" lon="12.242190079968">
        <ele>450.8</ele>
        <time>2019-12-31T16:09:53Z</time>
      </trkpt>
      <trkpt lat="61.300381165709" lon="12.242087150236">
        <ele>451.4</ele>
        <time>2019-12-31T16:09:57Z</time>
      </trkpt>
      <trkpt lat="61.300479736853" lon="12.24205161098">
        <ele>452</ele>
        <time>2019-12-31T16:10:04Z</time>
      </trkpt>
      <trkpt lat="61.300657097857" lon="12.242302565066">
        <ele>451.8</ele>
        <time>2019-12-31T16:10:46Z</time>
      </trkpt>
      <trkpt lat="61.301102344385" lon="12.242652760848">
        <ele>448.4</ele>
        <time>2019-12-31T16:10:52Z</time>
      </trkpt>
      <trkpt lat="61.301203094823" lon="12.242730125785">
        <ele>445</ele>
        <time>2019-12-31T16:10:53Z</time>
      </trkpt>
      <trkpt lat="61.301304012899" lon="12.242804389419">
        <ele>440.8</ele>
        <time>2019-12-31T16:10:54Z</time>
      </trkpt>
      <trkpt lat="61.301408116097" lon="12.242873204818">
        <ele>437.6</ele>
        <time>2019-12-31T16:10:55Z</time>
      </trkpt>
      <trkpt lat="61.301509788544" lon="12.242943361321">
        <ele>435.2</ele>
        <time>2019-12-31T16:10:56Z</time>
      </trkpt>
      <trkpt lat="61.301609616973" lon="12.243009326874">
        <ele>433.6</ele>
        <time>2019-12-31T16:10:57Z</time>
      </trkpt>
      <trkpt lat="61.301782200294" lon="12.243128852768">
        <ele>432.6</ele>
        <time>2019-12-31T16:10:59Z</time>
      </trkpt>
      <trkpt lat="61.30194682081" lon="12.243193309579">
        <ele>432.8</ele>
        <time>2019-12-31T16:11:01Z</time>
      </trkpt>
      <trkpt lat="61.302108004747" lon="12.243161877454">
        <ele>432.8</ele>
        <time>2019-12-31T16:11:03Z</time>
      </trkpt>
      <trkpt lat="61.302544701737" lon="12.242891393541">
        <ele>432.2</ele>
        <time>2019-12-31T16:11:09Z</time>
      </trkpt>
      <trkpt lat="61.302982320736" lon="12.242532648221">
        <ele>432.2</ele>
        <time>2019-12-31T16:11:16Z</time>
      </trkpt>
      <trkpt lat="61.303105534666" lon="12.242429215575">
        <ele>434.2</ele>
        <time>2019-12-31T16:11:19Z</time>
      </trkpt>
      <trkpt lat="61.303144175225" lon="12.242388647179">
        <ele>435.6</ele>
        <time>2019-12-31T16:11:20Z</time>
      </trkpt>
      <trkpt lat="61.303177367549" lon="12.242361908918">
        <ele>436.6</ele>
        <time>2019-12-31T16:11:21Z</time>
      </trkpt>
      <trkpt lat="61.30338264028" lon="12.242152361418">
        <ele>437.2</ele>
        <time>2019-12-31T16:11:30Z</time>
      </trkpt>
      <trkpt lat="61.301691591955" lon="12.243802673709">
        <ele>436.4</ele>
        <time>2019-12-31T16:13:29Z</time>
      </trkpt>
      <trkpt lat="61.301447930122" lon="12.243876266791">
        <ele>436.2</ele>
        <time>2019-12-31T16:13:38Z</time>
      </trkpt>
      <trkpt lat="61.301425969544" lon="12.243825807753">
        <ele>436.2</ele>
        <time>2019-12-31T16:13:40Z</time>
      </trkpt>
      <trkpt lat="61.301462514628" lon="12.243567477595">
        <ele>436.4</ele>
        <time>2019-12-31T16:13:48Z</time>
      </trkpt>
      <trkpt lat="61.301728472315" lon="12.243382321424">
        <ele>437.8</ele>
        <time>2019-12-31T16:14:01Z</time>
      </trkpt>
      <trkpt lat="61.302162822373" lon="12.24309683391">
        <ele>438.4</ele>
        <time>2019-12-31T16:14:19Z</time>
      </trkpt>
      <trkpt lat="61.302607985082" lon="12.242820063572">
        <ele>437</ele>
        <time>2019-12-31T16:14:32Z</time>
      </trkpt>
      <trkpt lat="61.302713010289" lon="12.242752421639">
        <ele>436.6</ele>
        <time>2019-12-31T16:14:35Z</time>
      </trkpt>
      <trkpt lat="61.303131602375" lon="12.242337349951">
        <ele>437</ele>
        <time>2019-12-31T16:14:49Z</time>
      </trkpt>
      <trkpt lat="61.303373084914" lon="12.242128975917">
        <ele>436.8</ele>
        <time>2019-12-31T16:14:59Z</time>
      </trkpt>
      <trkpt lat="61.303443409055" lon="12.242110451918">
        <ele>436.8</ele>
        <time>2019-12-31T16:15:17Z</time>
      </trkpt>
      <trkpt lat="61.303385238669" lon="12.242245735784">
        <ele>437</ele>
        <time>2019-12-31T16:15:26Z</time>
      </trkpt>
      <trkpt lat="61.303353722725" lon="12.242304073808">
        <ele>437.2</ele>
        <time>2019-12-31T16:15:28Z</time>
      </trkpt>
      <trkpt lat="61.303072258523" lon="12.24266265149">
        <ele>437.6</ele>
        <time>2019-12-31T16:15:37Z</time>
      </trkpt>
      <trkpt lat="61.303005370961" lon="12.242733143269">
        <ele>437</ele>
        <time>2019-12-31T16:15:39Z</time>
      </trkpt>
      <trkpt lat="61.302922641608" lon="12.24280598198">
        <ele>437.2</ele>
        <time>2019-12-31T16:15:41Z</time>
      </trkpt>
      <trkpt lat="61.302860867005" lon="12.242874545922">
        <ele>437</ele>
        <time>2019-12-31T16:15:43Z</time>
      </trkpt>
      <trkpt lat="61.302793979443" lon="12.242946714081">
        <ele>437</ele>
        <time>2019-12-31T16:15:45Z</time>
      </trkpt>
      <trkpt lat="61.302471443931" lon="12.24318568205">
        <ele>437.4</ele>
        <time>2019-12-31T16:15:56Z</time>
      </trkpt>
      <trkpt lat="61.302407322396" lon="12.243225831351">
        <ele>437.8</ele>
        <time>2019-12-31T16:15:58Z</time>
      </trkpt>
      <trkpt lat="61.302346553621" lon="12.243248294843">
        <ele>437.8</ele>
        <time>2019-12-31T16:16:00Z</time>
      </trkpt>
      <trkpt lat="61.302189979729" lon="12.243316942604">
        <ele>437.6</ele>
        <time>2019-12-31T16:16:06Z</time>
      </trkpt>
      <trkpt lat="61.302041787737" lon="12.2433658929">
        <ele>438.2</ele>
        <time>2019-12-31T16:16:13Z</time>
      </trkpt>
      <trkpt lat="61.302013456915" lon="12.243270423059">
        <ele>438.2</ele>
        <time>2019-12-31T16:16:16Z</time>
      </trkpt>
      <trkpt lat="61.302433641562" lon="12.242936655801">
        <ele>438</ele>
        <time>2019-12-31T16:16:30Z</time>
      </trkpt>
      <trkpt lat="61.302722817112" lon="12.242737082762">
        <ele>436.8</ele>
        <time>2019-12-31T16:16:38Z</time>
      </trkpt>
      <trkpt lat="61.302763804603" lon="12.242718474944">
        <ele>436.4</ele>
        <time>2019-12-31T16:16:39Z</time>
      </trkpt>
      <trkpt lat="61.302801942248" lon="12.24269031176">
        <ele>436.4</ele>
        <time>2019-12-31T16:16:40Z</time>
      </trkpt>
      <trkpt lat="61.302838738789" lon="12.242662232395">
        <ele>435.4</ele>
        <time>2019-12-31T16:16:41Z</time>
      </trkpt>
      <trkpt lat="61.303255151581" lon="12.24226283486">
        <ele>435.6</ele>
        <time>2019-12-31T16:16:56Z</time>
      </trkpt>
      <trkpt lat="61.303378030235" lon="12.242156217092">
        <ele>435.6</ele>
        <time>2019-12-31T16:17:01Z</time>
      </trkpt>
    </trkseg>
  </trk>
</gpx>